createdAt,value
2018-04-02T00:00:53.792Z,99833.66
2018-04-02T00:01:59.542Z,99830.47
2018-04-02T00:03:06.052Z,99827.73
2018-04-02T00:04:11.816Z,99835.88
2018-04-02T00:05:17.552Z,99834.55
2018-04-02T00:06:23.321Z,99828.87
2018-04-02T00:07:29.846Z,99833.13
2018-04-02T00:08:35.602Z,99834.75
2018-04-02T00:09:41.353Z,99833.37
2018-04-02T00:10:47.870Z,99831.97
2018-04-02T00:11:53.397Z,99835.33
2018-04-02T00:12:59.157Z,99832.22
2018-04-02T00:14:04.678Z,99830.78
2018-04-02T00:15:10.441Z,99832.44
2018-04-02T00:16:16.188Z,99834.09
2018-04-02T00:17:21.965Z,99832.77
2018-04-02T00:18:28.481Z,99831.30
2018-04-02T00:19:34.232Z,99833.78
2018-04-02T00:20:39.983Z,99835.45
2018-04-02T00:21:45.740Z,99829.30
2018-04-02T00:22:51.537Z,99831.94
2018-04-02T00:23:56.974Z,99831.05
2018-04-02T00:25:02.931Z,99832.79
2018-04-02T00:26:08.673Z,99835.39
2018-04-02T00:27:14.422Z,99832.79
2018-04-02T00:28:23.950Z,99828.80
2018-04-02T00:29:29.689Z,99824.88
2018-04-02T00:30:35.437Z,99821.96
2018-04-02T00:31:41.192Z,99822.47
2018-04-02T00:32:47.725Z,99826.52
2018-04-02T00:33:53.496Z,99824.09
2018-04-02T00:34:59.255Z,99822.93
2018-04-02T00:36:05.759Z,99824.39
2018-04-02T00:37:11.517Z,99826.17
2018-04-02T00:38:17.262Z,99831.95
2018-04-02T00:39:22.812Z,99826.84
2018-04-02T00:40:28.564Z,99824.36
2018-04-02T00:41:34.851Z,99828.27
2018-04-02T00:42:40.596Z,99827.11
2018-04-02T00:43:46.375Z,99826.33
2018-04-02T00:44:52.152Z,99828.58
2018-04-02T00:45:58.669Z,99826.95
2018-04-02T00:47:04.416Z,99827.55
2018-04-02T00:48:10.166Z,99827.59
2018-04-02T00:49:16.692Z,99824.98
2018-04-02T00:50:22.448Z,99827.14
2018-04-02T00:51:28.460Z,99831.45
2018-04-02T00:52:34.252Z,99830.27
2018-04-02T00:53:40.018Z,99829.50
2018-04-02T00:54:46.539Z,99831.23
2018-04-02T00:55:52.312Z,99829.19
2018-04-02T00:56:58.064Z,99832.70
2018-04-02T00:58:04.591Z,99829.69
2018-04-02T00:59:10.345Z,99834.08
2018-04-02T01:00:16.096Z,99832.28
2018-04-02T01:01:21.640Z,99834.08
2018-04-02T01:02:28.889Z,99832.78
2018-04-02T01:03:34.641Z,99828.48
2018-04-02T01:04:40.406Z,99833.35
2018-04-02T01:05:46.686Z,99833.39
2018-04-02T01:06:52.481Z,99833.84
2018-04-02T01:07:58.236Z,99835.19
2018-04-02T01:09:03.959Z,99836.45
2018-04-02T01:10:09.702Z,99834.72
2018-04-02T01:11:15.456Z,99836.00
2018-04-02T01:12:22.723Z,99831.26
2018-04-02T01:13:28.479Z,99838.20
2018-04-02T01:14:35.006Z,99840.05
2018-04-02T01:15:40.752Z,99836.55
2018-04-02T01:16:46.501Z,99835.31
2018-04-02T01:17:52.263Z,99847.85
2018-04-02T01:18:59.055Z,99844.05
2018-04-02T01:20:05.242Z,99843.61
2018-04-02T01:21:10.985Z,99847.52
2018-04-02T01:22:16.723Z,99842.77
2018-04-02T01:23:22.633Z,99844.64
2018-04-02T01:24:29.138Z,99848.10
2018-04-02T01:25:34.890Z,99846.41
2018-04-02T01:26:40.637Z,99847.70
2018-04-02T01:27:47.889Z,99843.83
2018-04-02T01:28:53.653Z,99840.90
2018-04-02T01:30:00.248Z,99853.44
2018-04-02T01:31:06.549Z,99843.95
2018-04-02T01:32:12.305Z,99850.44
2018-04-02T01:33:18.044Z,99853.45
2018-04-02T01:34:23.813Z,99852.13
2018-04-02T01:35:29.560Z,99845.59
2018-04-02T01:36:36.064Z,99850.82
2018-04-02T01:37:41.816Z,99846.14
2018-04-02T01:38:47.556Z,99850.47
2018-04-02T01:39:53.326Z,99848.28
2018-04-02T01:41:00.587Z,99856.09
2018-04-02T01:42:06.341Z,99855.30
2018-04-02T01:43:12.097Z,99853.64
2018-04-02T01:44:18.612Z,99853.33
2018-04-02T01:45:24.377Z,99854.74
2018-04-02T01:46:29.916Z,99855.19
2018-04-02T01:47:35.669Z,99851.74
2018-04-02T01:48:42.176Z,99849.19
2018-04-02T01:49:47.927Z,99855.75
2018-04-02T01:50:53.718Z,99856.22
2018-04-02T01:52:00.232Z,99851.86
2018-04-02T01:53:05.984Z,99850.57
2018-04-02T01:54:11.737Z,99854.83
2018-04-02T01:55:18.260Z,99857.00
2018-04-02T01:56:24.034Z,99859.66
2018-04-02T01:57:29.782Z,99863.55
2018-04-02T01:58:35.542Z,99862.27
2018-04-02T01:59:42.092Z,99861.88
2018-04-02T02:00:48.615Z,99865.33
2018-04-02T02:01:54.390Z,99862.31
2018-04-02T02:02:59.913Z,99868.78
2018-04-02T02:04:05.660Z,99860.22
2018-04-02T02:05:11.413Z,99859.83
2018-04-02T02:06:17.720Z,99863.72
2018-04-02T02:07:23.685Z,99860.68
2018-04-02T02:08:30.100Z,99866.33
2018-04-02T02:09:35.858Z,99862.86
2018-04-02T02:10:41.617Z,99857.25
2018-04-02T02:11:47.369Z,99855.55
2018-04-02T02:12:53.150Z,99857.27
2018-04-02T02:13:59.677Z,99860.29
2018-04-02T02:15:05.104Z,99856.35
2018-04-02T02:16:10.524Z,99858.09
2018-04-02T02:17:16.268Z,99858.52
2018-04-02T02:18:22.032Z,99861.52
2018-04-02T02:19:27.780Z,99852.88
2018-04-02T02:20:33.298Z,99852.83
2018-04-02T02:21:39.042Z,99852.83
2018-04-02T02:22:44.565Z,99855.89
2018-04-02T02:23:50.388Z,99847.69
2018-04-02T02:24:56.300Z,99855.47
2018-04-02T02:26:02.805Z,99852.45
2018-04-02T02:27:08.548Z,99852.02
2018-04-02T02:28:14.293Z,99854.61
2018-04-02T02:29:20.069Z,99855.84
2018-04-02T02:30:25.829Z,99848.13
2018-04-02T02:31:32.343Z,99847.70
2018-04-02T02:32:38.121Z,99858.11
2018-04-02T02:33:43.859Z,99854.66
2018-04-02T02:34:49.637Z,99854.69
2018-04-02T02:35:55.394Z,99855.60
2018-04-02T02:37:01.133Z,99853.45
2018-04-02T02:38:06.884Z,99857.72
2018-04-02T02:39:12.634Z,99856.91
2018-04-02T02:40:18.404Z,99856.93
2018-04-02T02:41:24.934Z,99858.69
2018-04-02T02:42:30.670Z,99857.07
2018-04-02T02:43:36.439Z,99856.66
2018-04-02T02:44:41.953Z,99858.50
2018-04-02T02:45:47.722Z,99857.66
2018-04-02T02:46:53.238Z,99859.44
2018-04-02T02:47:58.742Z,99853.47
2018-04-02T02:49:04.485Z,99857.34
2018-04-02T02:50:10.238Z,99853.45
2018-04-02T02:51:16.000Z,99859.86
2018-04-02T02:52:21.750Z,99852.52
2018-04-02T02:53:27.502Z,99855.13
2018-04-02T02:54:33.254Z,99859.92
2018-04-02T02:55:38.993Z,99851.33
2018-04-02T02:56:44.766Z,99857.84
2018-04-02T02:57:50.514Z,99857.48
2018-04-02T02:58:56.253Z,99860.54
2018-04-02T03:00:02.004Z,99854.97
2018-04-02T03:01:07.932Z,99853.75
2018-04-02T03:02:13.927Z,99865.42
2018-04-02T03:03:19.869Z,99861.55
2018-04-02T03:04:25.622Z,99862.90
2018-04-02T03:05:31.573Z,99860.72
2018-04-02T03:06:37.312Z,99869.00
2018-04-02T03:07:43.853Z,99866.42
2018-04-02T03:08:49.608Z,99865.63
2018-04-02T03:09:55.371Z,99871.73
2018-04-02T03:11:01.887Z,99871.31
2018-04-02T03:12:07.629Z,99875.65
2018-04-02T03:13:13.398Z,99876.93
2018-04-02T03:14:19.682Z,99873.06
2018-04-02T03:15:25.423Z,99874.80
2018-04-02T03:16:31.175Z,99874.81
2018-04-02T03:17:36.918Z,99872.72
2018-04-02T03:18:42.709Z,99867.93
2018-04-02T03:19:48.455Z,99862.41
2018-04-02T03:20:54.991Z,99868.91
2018-04-02T03:22:00.736Z,99865.11
2018-04-02T03:23:06.489Z,99871.58
2018-04-02T03:24:12.256Z,99868.58
2018-04-02T03:25:18.771Z,99867.27
2018-04-02T03:26:24.521Z,99867.33
2018-04-02T03:27:30.265Z,99858.68
2018-04-02T03:28:36.013Z,99848.42
2018-04-02T03:29:41.776Z,99850.14
2018-04-02T03:30:48.286Z,99851.88
2018-04-02T03:31:54.047Z,99845.42
2018-04-02T03:32:59.792Z,99856.66
2018-04-02T03:34:05.537Z,99852.75
2018-04-02T03:35:11.300Z,99856.19
2018-04-02T03:36:17.822Z,99854.92
2018-04-02T03:37:23.562Z,99852.84
2018-04-02T03:38:29.308Z,99853.34
2018-04-02T03:39:35.110Z,99857.73
2018-04-02T03:40:40.880Z,99856.48
2018-04-02T03:41:46.624Z,99856.46
2018-04-02T03:42:52.391Z,99856.06
2018-04-02T03:43:58.906Z,99858.24
2018-04-02T03:45:04.658Z,99854.88
2018-04-02T03:46:10.426Z,99859.20
2018-04-02T03:47:16.168Z,99860.55
2018-04-02T03:48:21.918Z,99858.86
2018-04-02T03:49:27.910Z,99867.52
2018-04-02T03:50:33.656Z,99868.35
2018-04-02T03:51:39.436Z,99863.20
2018-04-02T03:52:45.182Z,99861.93
2018-04-02T03:53:50.974Z,99863.66
2018-04-02T03:54:56.715Z,99862.77
2018-04-02T03:56:02.464Z,99867.95
2018-04-02T03:57:08.245Z,99871.87
2018-04-02T03:58:14.002Z,99862.81
2018-04-02T03:59:19.760Z,99867.62
2018-04-02T04:00:26.294Z,99868.09
2018-04-02T04:01:33.550Z,99875.00
2018-04-02T04:02:39.328Z,99868.56
2018-04-02T04:03:45.860Z,99869.05
2018-04-02T04:04:51.596Z,99873.28
2018-04-02T04:05:57.349Z,99866.79
2018-04-02T04:07:03.100Z,99869.81
2018-04-02T04:08:08.881Z,99873.24
2018-04-02T04:09:14.660Z,99865.05
2018-04-02T04:10:20.413Z,99869.80
2018-04-02T04:11:26.160Z,99871.50
2018-04-02T04:12:31.916Z,99875.83
2018-04-02T04:13:37.689Z,99870.67
2018-04-02T04:14:43.439Z,99868.12
2018-04-02T04:15:49.184Z,99874.23
2018-04-02T04:16:54.937Z,99871.64
2018-04-02T04:18:00.716Z,99878.11
2018-04-02T04:19:06.484Z,99877.26
2018-04-02T04:20:13.023Z,99882.02
2018-04-02T04:21:18.773Z,99882.05
2018-04-02T04:22:25.284Z,99885.49
2018-04-02T04:23:31.037Z,99880.31
2018-04-02T04:24:36.812Z,99885.56
2018-04-02T04:25:43.335Z,99881.69
2018-04-02T04:26:48.522Z,99882.06
2018-04-02T04:27:54.273Z,99884.27
2018-04-02T04:29:00.017Z,99885.56
2018-04-02T04:30:05.795Z,99885.14
2018-04-02T04:31:11.615Z,99881.29
2018-04-02T04:32:17.130Z,99886.89
2018-04-02T04:33:22.882Z,99883.89
2018-04-02T04:34:28.634Z,99887.42
2018-04-02T04:35:34.420Z,99884.45
2018-04-02T04:36:40.169Z,99890.47
2018-04-02T04:37:46.692Z,99885.76
2018-04-02T04:38:52.448Z,99884.52
2018-04-02T04:39:58.213Z,99887.54
2018-04-02T04:41:04.085Z,99885.38
2018-04-02T04:42:10.053Z,99882.74
2018-04-02T04:43:15.824Z,99884.83
2018-04-02T04:44:21.572Z,99892.52
2018-04-02T04:45:27.404Z,99879.95
2018-04-02T04:46:33.181Z,99885.02
2018-04-02T04:47:39.711Z,99880.56
2018-04-02T04:48:45.455Z,99882.09
2018-04-02T04:49:52.933Z,99885.38
2018-04-02T04:50:58.692Z,99880.48
2018-04-02T04:52:04.462Z,99887.62
2018-04-02T04:53:09.980Z,99885.75
2018-04-02T04:54:16.512Z,99882.58
2018-04-02T04:55:22.260Z,99888.92
2018-04-02T04:56:28.016Z,99884.88
2018-04-02T04:57:34.328Z,99883.03
2018-04-02T04:58:40.079Z,99887.58
2018-04-02T04:59:45.821Z,99883.11
2018-04-02T05:00:51.590Z,99879.95
2018-04-02T05:01:58.849Z,99881.56
2018-04-02T05:03:04.624Z,99879.30
2018-04-02T05:04:11.137Z,99880.90
2018-04-02T05:05:16.670Z,99878.23
2018-04-02T05:06:22.415Z,99872.49
2018-04-02T05:07:28.172Z,99874.16
2018-04-02T05:08:34.713Z,99874.95
2018-04-02T05:09:40.492Z,99872.67
2018-04-02T05:10:46.422Z,99876.49
2018-04-02T05:11:51.970Z,99877.20
2018-04-02T05:12:57.727Z,99878.75
2018-04-02T05:14:04.292Z,99882.88
2018-04-02T05:15:10.807Z,99885.81
2018-04-02T05:16:16.563Z,99888.34
2018-04-02T05:17:22.317Z,99889.97
2018-04-02T05:18:28.506Z,99891.58
2018-04-02T05:19:35.045Z,99886.27
2018-04-02T05:20:41.567Z,99890.55
2018-04-02T05:21:47.084Z,99896.03
2018-04-02T05:22:52.854Z,99891.22
2018-04-02T05:23:58.780Z,99896.35
2018-04-02T05:25:04.552Z,99892.02
2018-04-02T05:26:10.302Z,99893.22
2018-04-02T05:27:16.817Z,99890.98
2018-04-02T05:28:22.565Z,99890.11
2018-04-02T05:29:28.331Z,99887.80
2018-04-02T05:30:34.856Z,99891.92
2018-04-02T05:31:40.608Z,99891.33
2018-04-02T05:32:46.354Z,99893.45
2018-04-02T05:33:52.092Z,99893.01
2018-04-02T05:34:57.841Z,99891.64
2018-04-02T05:36:03.608Z,99891.64
2018-04-02T05:37:10.132Z,99889.88
2018-04-02T05:38:15.874Z,99890.69
2018-04-02T05:39:21.616Z,99885.77
2018-04-02T05:40:27.368Z,99888.26
2018-04-02T05:41:33.136Z,99891.23
2018-04-02T05:42:39.684Z,99888.91
2018-04-02T05:43:46.919Z,99886.69
2018-04-02T05:44:52.672Z,99889.77
2018-04-02T05:45:58.481Z,99882.25
2018-04-02T05:47:04.259Z,99888.35
2018-04-02T05:48:10.022Z,99893.48
2018-04-02T05:49:15.776Z,99888.17
2018-04-02T05:50:22.292Z,99886.41
2018-04-02T05:51:28.047Z,99884.59
2018-04-02T05:52:33.841Z,99886.27
2018-04-02T05:53:40.349Z,99890.15
2018-04-02T05:54:46.096Z,99896.14
2018-04-02T05:55:51.845Z,99892.05
2018-04-02T05:56:57.600Z,99895.03
2018-04-02T05:58:03.917Z,99896.75
2018-04-02T05:59:09.931Z,99892.33
2018-04-02T06:00:15.685Z,99892.59
2018-04-02T06:01:21.732Z,99891.17
2018-04-02T06:02:27.487Z,99891.48
2018-04-02T06:03:33.277Z,99895.66
2018-04-02T06:04:39.032Z,99889.95
2018-04-02T06:05:45.545Z,99893.34
2018-04-02T06:06:51.321Z,99896.73
2018-04-02T06:07:57.834Z,99897.13
2018-04-02T06:09:03.136Z,99895.31
2018-04-02T06:10:08.889Z,99897.42
2018-04-02T06:11:14.436Z,99896.02
2018-04-02T06:12:20.175Z,99890.77
2018-04-02T06:13:25.929Z,99891.11
2018-04-02T06:14:31.389Z,99890.73
2018-04-02T06:15:37.132Z,99897.05
2018-04-02T06:16:42.916Z,99893.03
2018-04-02T06:17:49.606Z,99892.45
2018-04-02T06:18:55.358Z,99893.70
2018-04-02T06:20:01.128Z,99895.31
2018-04-02T06:21:06.875Z,99889.58
2018-04-02T06:22:12.620Z,99894.20
2018-04-02T06:23:19.142Z,99885.98
2018-04-02T06:24:25.014Z,99888.55
2018-04-02T06:25:30.811Z,99891.03
2018-04-02T06:26:36.564Z,99890.03
2018-04-02T06:27:42.308Z,99886.48
2018-04-02T06:28:48.061Z,99882.91
2018-04-02T06:29:53.812Z,99881.98
2018-04-02T06:30:59.585Z,99884.94
2018-04-02T06:32:06.115Z,99888.25
2018-04-02T06:33:13.368Z,99886.72
2018-04-02T06:34:19.121Z,99882.67
2018-04-02T06:35:24.873Z,99885.61
2018-04-02T06:36:31.427Z,99888.14
2018-04-02T06:37:37.176Z,99891.14
2018-04-02T06:38:42.931Z,99891.14
2018-04-02T06:39:49.444Z,99891.57
2018-04-02T06:40:55.188Z,99895.45
2018-04-02T06:42:00.964Z,99895.89
2018-04-02T06:43:06.749Z,99897.98
2018-04-02T06:44:12.790Z,99893.64
2018-04-02T06:45:18.537Z,99893.95
2018-04-02T06:46:25.505Z,99893.92
2018-04-02T06:47:31.068Z,99892.82
2018-04-02T06:48:36.816Z,99888.71
2018-04-02T06:49:42.555Z,99888.21
2018-04-02T06:50:48.297Z,99891.27
2018-04-02T06:51:54.049Z,99891.27
2018-04-02T06:52:59.816Z,99892.39
2018-04-02T06:54:06.206Z,99894.52
2018-04-02T06:55:11.952Z,99893.66
2018-04-02T06:56:17.717Z,99896.18
2018-04-02T06:57:23.467Z,99896.11
2018-04-02T06:58:29.032Z,99894.43
2018-04-02T06:59:35.539Z,99890.55
2018-04-02T07:00:41.072Z,99893.53
2018-04-02T07:01:46.830Z,99888.56
2018-04-02T07:02:52.581Z,99886.70
2018-04-02T07:03:58.360Z,99892.29
2018-04-02T07:05:04.637Z,99893.48
2018-04-02T07:06:10.394Z,99891.41
2018-04-02T07:07:16.380Z,99885.52
2018-04-02T07:08:23.629Z,99894.17
2018-04-02T07:09:29.421Z,99890.80
2018-04-02T07:10:35.930Z,99896.53
2018-04-02T07:11:41.680Z,99899.34
2018-04-02T07:12:47.445Z,99899.72
2018-04-02T07:13:53.952Z,99901.78
2018-04-02T07:14:59.729Z,99902.14
2018-04-02T07:16:05.141Z,99904.11
2018-04-02T07:17:10.885Z,99911.85
2018-04-02T07:18:16.624Z,99903.15
2018-04-02T07:19:22.385Z,99915.84
2018-04-02T07:20:28.149Z,99911.43
2018-04-02T07:21:33.996Z,99908.78
2018-04-02T07:22:39.571Z,99910.88
2018-04-02T07:23:45.342Z,99917.81
2018-04-02T07:24:51.098Z,99910.88
2018-04-02T07:25:56.870Z,99917.60
2018-04-02T07:27:03.388Z,99913.67
2018-04-02T07:28:08.919Z,99913.80
2018-04-02T07:29:14.684Z,99918.78
2018-04-02T07:30:20.428Z,99916.27
2018-04-02T07:31:26.964Z,99912.03
2018-04-02T07:32:32.720Z,99907.28
2018-04-02T07:33:38.456Z,99902.00
2018-04-02T07:34:44.216Z,99903.50
2018-04-02T07:35:49.972Z,99906.31
2018-04-02T07:36:56.506Z,99904.75
2018-04-02T07:38:02.268Z,99901.08
2018-04-02T07:39:07.135Z,99904.70
2018-04-02T07:40:12.879Z,99904.46
2018-04-02T07:41:18.628Z,99899.03
2018-04-02T07:42:24.388Z,99901.05
2018-04-02T07:43:30.137Z,99906.97
2018-04-02T07:44:35.975Z,99905.82
2018-04-02T07:45:41.770Z,99905.52
2018-04-02T07:46:47.517Z,99907.14
2018-04-02T07:47:53.061Z,99913.45
2018-04-02T07:48:58.591Z,99907.37
2018-04-02T07:50:04.460Z,99912.18
2018-04-02T07:51:10.208Z,99917.79
2018-04-02T07:52:15.972Z,99921.27
2018-04-02T07:53:21.512Z,99929.48
2018-04-02T07:54:27.256Z,99933.90
2018-04-02T07:55:33.774Z,99930.44
2018-04-02T07:56:39.518Z,99928.74
2018-04-02T07:57:45.276Z,99930.47
2018-04-02T07:58:51.824Z,99928.86
2018-04-02T07:59:57.579Z,99931.52
2018-04-02T08:01:03.334Z,99926.47
2018-04-02T08:02:09.131Z,99932.18
2018-04-02T08:03:14.907Z,99923.60
2018-04-02T08:04:20.732Z,99921.78
2018-04-02T08:05:27.414Z,99924.34
2018-04-02T08:06:33.931Z,99923.72
2018-04-02T08:07:40.277Z,99922.55
2018-04-02T08:08:46.027Z,99920.03
2018-04-02T08:09:51.809Z,99921.51
2018-04-02T08:10:57.564Z,99925.64
2018-04-02T08:12:03.319Z,99925.30
2018-04-02T08:13:09.844Z,99926.98
2018-04-02T08:14:15.713Z,99929.34
2018-04-02T08:15:21.493Z,99932.28
2018-04-02T08:16:28.017Z,99920.41
2018-04-02T08:17:33.584Z,99924.45
2018-04-02T08:18:39.337Z,99926.84
2018-04-02T08:19:44.861Z,99924.49
2018-04-02T08:20:50.388Z,99923.85
2018-04-02T08:21:56.140Z,99923.84
2018-04-02T08:23:01.681Z,99925.81
2018-04-02T08:24:07.556Z,99922.40
2018-04-02T08:25:13.325Z,99922.92
2018-04-02T08:26:20.394Z,99913.80
2018-04-02T08:27:26.995Z,99922.11
2018-04-02T08:28:32.797Z,99918.71
2018-04-02T08:29:38.882Z,99913.34
2018-04-02T08:30:44.830Z,99911.16
2018-04-02T08:31:50.846Z,99913.73
2018-04-02T08:32:57.514Z,99917.17
2018-04-02T08:34:04.205Z,99906.55
2018-04-02T08:35:10.251Z,99906.07
2018-04-02T08:36:16.293Z,99911.88
2018-04-02T08:37:23.287Z,99909.17
2018-04-02T08:38:29.162Z,99907.63
2018-04-02T08:39:34.921Z,99904.45
2018-04-02T08:40:40.462Z,99901.48
2018-04-02T08:41:47.029Z,99898.91
2018-04-02T08:42:54.024Z,99903.94
2018-04-02T08:43:59.865Z,99903.06
2018-04-02T08:45:05.681Z,99902.45
2018-04-02T08:46:11.506Z,99894.15
2018-04-02T08:47:17.297Z,99898.78
2018-04-02T08:48:23.074Z,99902.13
2018-04-02T08:49:28.893Z,99892.84
2018-04-02T08:50:34.664Z,99899.22
2018-04-02T08:51:40.438Z,99898.19
2018-04-02T08:52:46.959Z,99893.55
2018-04-02T08:53:52.752Z,99888.53
2018-04-02T08:54:59.269Z,99889.80
2018-04-02T08:56:05.043Z,99893.95
2018-04-02T08:57:10.475Z,99895.45
2018-04-02T08:58:17.017Z,99888.97
2018-04-02T08:59:22.578Z,99887.27
2018-04-02T09:00:29.108Z,99884.00
2018-04-02T09:01:34.643Z,99885.05
2018-04-02T09:02:40.417Z,99888.06
2018-04-02T09:03:47.047Z,99886.23
2018-04-02T09:04:52.833Z,99880.58
2018-04-02T09:05:58.603Z,99884.20
2018-04-02T09:07:04.403Z,99885.91
2018-04-02T09:08:10.342Z,99891.34
2018-04-02T09:09:16.928Z,99885.21
2018-04-02T09:10:22.716Z,99884.92
2018-04-02T09:11:28.527Z,99880.72
2018-04-02T09:12:34.365Z,99883.12
2018-04-02T09:13:40.232Z,99882.88
2018-04-02T09:14:46.005Z,99886.63
2018-04-02T09:15:52.579Z,99881.75
2018-04-02T09:16:59.102Z,99878.82
2018-04-02T09:18:04.881Z,99882.15
2018-04-02T09:19:11.486Z,99875.30
2018-04-02T09:20:17.232Z,99876.48
2018-04-02T09:21:23.027Z,99876.09
2018-04-02T09:22:29.322Z,99875.23
2018-04-02T09:23:35.715Z,99869.29
2018-04-02T09:24:41.239Z,99874.46
2018-04-02T09:25:47.001Z,99876.05
2018-04-02T09:26:52.574Z,99865.27
2018-04-02T09:27:58.272Z,99869.25
2018-04-02T09:29:05.592Z,99868.21
2018-04-02T09:30:11.372Z,99869.31
2018-04-02T09:31:16.722Z,99869.18
2018-04-02T09:32:22.520Z,99866.56
2018-04-02T09:33:28.080Z,99866.52
2018-04-02T09:34:33.621Z,99864.17
2018-04-02T09:35:39.360Z,99866.91
2018-04-02T09:36:45.135Z,99862.80
2018-04-02T09:37:50.911Z,99866.56
2018-04-02T09:38:56.739Z,99863.44
2018-04-02T09:40:03.255Z,99865.34
2018-04-02T09:41:08.692Z,99862.44
2018-04-02T09:42:14.455Z,99860.34
2018-04-02T09:43:20.241Z,99861.88
2018-04-02T09:44:26.003Z,99857.61
2018-04-02T09:45:31.796Z,99856.44
2018-04-02T09:46:37.311Z,99848.05
2018-04-02T09:47:43.089Z,99849.02
2018-04-02T09:48:48.901Z,99848.14
2018-04-02T09:49:54.657Z,99848.00
2018-04-02T09:51:01.440Z,99849.16
2018-04-02T09:52:07.401Z,99848.16
2018-04-02T09:53:13.312Z,99845.40
2018-04-02T09:54:20.105Z,99844.55
2018-04-02T09:55:26.043Z,99839.02
2018-04-02T09:56:31.800Z,99837.02
2018-04-02T09:57:37.558Z,99836.18
2018-04-02T09:58:43.348Z,99831.84
2018-04-02T09:59:49.167Z,99835.36
2018-04-02T10:01:00.290Z,99833.37
2018-04-02T10:02:11.509Z,99837.77
2018-04-02T10:03:17.038Z,99833.52
2018-04-02T10:04:37.484Z,99830.79
2018-04-02T10:05:44.719Z,99829.83
2018-04-02T10:06:51.242Z,99829.85
2018-04-02T10:07:57.004Z,99823.39
2018-04-02T10:09:03.296Z,99823.42
2018-04-02T10:10:09.106Z,99822.74
2018-04-02T10:11:15.103Z,99819.81
2018-04-02T10:12:20.867Z,99825.37
2018-04-02T10:13:26.621Z,99823.03
2018-04-02T10:14:33.148Z,99824.74
2018-04-02T10:15:38.933Z,99823.80
2018-04-02T10:16:44.940Z,99824.84
2018-04-02T10:17:50.766Z,99822.03
2018-04-02T10:18:56.551Z,99824.92
2018-04-02T10:20:02.089Z,99817.81
2018-04-02T10:21:07.854Z,99823.73
2018-04-02T10:22:14.416Z,99825.03
2018-04-02T10:23:20.952Z,99819.55
2018-04-02T10:24:27.501Z,99816.84
2018-04-02T10:25:33.269Z,99816.37
2018-04-02T10:26:39.864Z,99821.88
2018-04-02T10:27:45.648Z,99814.92
2018-04-02T10:28:51.401Z,99812.31
2018-04-02T10:29:57.482Z,99812.73
2018-04-02T10:31:04.104Z,99819.89
2018-04-02T10:32:10.111Z,99815.05
2018-04-02T10:33:16.837Z,99820.29
2018-04-02T10:34:22.593Z,99816.38
2018-04-02T10:35:29.141Z,99816.70
2018-04-02T10:36:34.900Z,99809.51
2018-04-02T10:37:41.429Z,99807.31
2018-04-02T10:38:47.213Z,99806.11
2018-04-02T10:39:52.968Z,99808.40
2018-04-02T10:40:58.732Z,99805.43
2018-04-02T10:42:04.497Z,99805.96
2018-04-02T10:43:10.265Z,99802.89
2018-04-02T10:44:16.595Z,99795.72
2018-04-02T10:45:23.131Z,99802.73
2018-04-02T10:46:28.923Z,99796.13
2018-04-02T10:47:35.397Z,99794.13
2018-04-02T10:48:41.205Z,99791.01
2018-04-02T10:49:46.932Z,99792.02
2018-04-02T10:50:52.704Z,99786.73
2018-04-02T10:51:59.242Z,99781.75
2018-04-02T10:53:04.997Z,99773.52
2018-04-02T10:54:11.538Z,99772.63
2018-04-02T10:55:18.863Z,99770.04
2018-04-02T10:56:24.659Z,99763.92
2018-04-02T10:57:30.856Z,99775.38
2018-04-02T10:58:36.621Z,99763.27
2018-04-02T10:59:42.446Z,99763.38
2018-04-02T11:00:48.394Z,99759.82
2018-04-02T11:01:54.146Z,99754.19
2018-04-02T11:02:59.921Z,99756.13
2018-04-02T11:04:05.685Z,99751.62
2018-04-02T11:05:12.466Z,99756.96
2018-04-02T11:06:19.145Z,99761.58
2018-04-02T11:07:25.160Z,99765.21
2018-04-02T11:08:31.137Z,99763.03
2018-04-02T11:09:37.390Z,99754.95
2018-04-02T11:10:43.434Z,99761.71
2018-04-02T11:11:49.272Z,99758.89
2018-04-02T11:12:55.070Z,99758.87
2018-04-02T11:14:01.770Z,99752.86
2018-04-02T11:15:07.719Z,99750.48
2018-04-02T11:16:13.477Z,99750.91
2018-04-02T11:17:19.279Z,99755.11
2018-04-02T11:18:25.207Z,99749.14
2018-04-02T11:19:31.197Z,99749.14
2018-04-02T11:20:36.952Z,99755.05
2018-04-02T11:21:42.828Z,99750.67
2018-04-02T11:22:48.828Z,99747.55
2018-04-02T11:23:54.787Z,99744.64
2018-04-02T11:25:01.074Z,99742.92
2018-04-02T11:26:06.694Z,99747.98
2018-04-02T11:27:12.463Z,99746.48
2018-04-02T11:28:18.249Z,99745.18
2018-04-02T11:29:24.827Z,99748.20
2018-04-02T11:30:30.624Z,99743.61
2018-04-02T11:31:36.385Z,99733.75
2018-04-02T11:32:42.911Z,99737.73
2018-04-02T11:33:48.695Z,99728.06
2018-04-02T11:34:54.458Z,99732.78
2018-04-02T11:36:00.220Z,99729.74
2018-04-02T11:37:06.405Z,99735.83
2018-04-02T11:38:11.924Z,99728.25
2018-04-02T11:39:17.907Z,99722.81
2018-04-02T11:40:24.461Z,99718.59
2018-04-02T11:41:30.994Z,99716.38
2018-04-02T11:42:36.772Z,99712.50
2018-04-02T11:43:42.772Z,99716.69
2018-04-02T11:44:49.802Z,99714.73
2018-04-02T11:45:55.561Z,99712.31
2018-04-02T11:47:01.324Z,99711.24
2018-04-02T11:48:07.143Z,99719.52
2018-04-02T11:49:13.840Z,99716.41
2018-04-02T11:50:19.690Z,99714.20
2018-04-02T11:51:25.468Z,99716.05
2018-04-02T11:52:32.041Z,99707.03
2018-04-02T11:53:37.812Z,99707.62
2018-04-02T11:54:43.652Z,99708.62
2018-04-02T11:55:49.462Z,99709.61
2018-04-02T11:56:55.244Z,99712.68
2018-04-02T11:58:01.040Z,99710.00
2018-04-02T11:59:07.001Z,99714.59
2018-04-02T12:00:12.763Z,99712.73
2018-04-02T12:01:18.558Z,99706.55
2018-04-02T12:02:25.114Z,99709.71
2018-04-02T12:03:31.724Z,99696.12
2018-04-02T12:04:37.728Z,99700.87
2018-04-02T12:05:44.323Z,99700.42
2018-04-02T12:06:50.115Z,99701.34
2018-04-02T12:07:55.886Z,99700.45
2018-04-02T12:09:01.661Z,99702.88
2018-04-02T12:10:07.794Z,99698.06
2018-04-02T12:11:14.045Z,99697.20
2018-04-02T12:12:19.864Z,99700.21
2018-04-02T12:13:26.183Z,99692.19
2018-04-02T12:14:32.166Z,99692.66
2018-04-02T12:15:39.480Z,99689.19
2018-04-02T12:16:45.399Z,99678.13
2018-04-02T12:17:51.359Z,99680.99
2018-04-02T12:18:57.157Z,99675.13
2018-04-02T12:20:02.963Z,99677.03
2018-04-02T12:21:09.435Z,99683.91
2018-04-02T12:22:15.303Z,99679.77
2018-04-02T12:23:20.984Z,99674.86
2018-04-02T12:24:26.835Z,99679.95
2018-04-02T12:25:35.157Z,99671.59
2018-04-02T12:26:40.908Z,99676.45
2018-04-02T12:27:47.633Z,99677.28
2018-04-02T12:28:53.621Z,99680.94
2018-04-02T12:29:59.394Z,99681.05
2018-04-02T12:31:05.937Z,99676.04
2018-04-02T12:32:12.713Z,99674.50
2018-04-02T12:33:19.248Z,99667.95
2018-04-02T12:34:25.121Z,99669.81
2018-04-02T12:35:32.081Z,99670.84
2018-04-02T12:36:39.627Z,99682.56
2018-04-02T12:37:45.389Z,99672.22
2018-04-02T12:38:51.165Z,99669.22
2018-04-02T12:39:57.773Z,99674.28
2018-04-02T12:41:03.770Z,99663.34
2018-04-02T12:42:10.384Z,99664.19
2018-04-02T12:43:16.195Z,99668.16
2018-04-02T12:44:23.142Z,99663.45
2018-04-02T12:45:29.129Z,99662.20
2018-04-02T12:46:35.113Z,99662.69
2018-04-02T12:47:40.892Z,99661.56
2018-04-02T12:48:46.655Z,99660.77
2018-04-02T12:49:52.420Z,99658.02
2018-04-02T12:50:58.910Z,99658.66
2018-04-02T12:52:04.483Z,99649.40
2018-04-02T12:53:10.265Z,99651.50
2018-04-02T12:54:16.076Z,99651.30
2018-04-02T12:55:21.837Z,99647.64